Time;durP1;ratioP1;P1;durP2;ratioP2;P2;SDS_P1;SDS_P2;PMS_P1;PMS_P2;Temp;Humidity;BMP_temperature;BMP_pressure;BME280_temperature;BME280_humidity;BME280_pressure;Samples;Min_cycle;Max_cycle;Signal;HPM_P1;HPM_P2
2022/09/16 00:00:23;;;;;;;14.00;9.07;;;;;;;9.87;86.02;98081.03;5019148;28;20521;-75
2022/09/16 00:02:51;;;;;;;14.98;9.15;;;;;;;9.94;85.24;98076.78;5037384;28;20392;-69
2022/09/16 00:05:15;;;;;;;11.85;8.45;;;;;;;9.89;85.18;98076.41;5039962;28;20064;-69
2022/09/16 00:07:40;;;;;;;12.80;8.73;;;;;;;9.87;84.74;98075.69;5038816;28;20047;-71
2022/09/16 00:10:05;;;;;;;16.20;9.35;;;;;;;9.84;84.94;98086.63;5057383;28;20514;-70
2022/09/16 00:12:30;;;;;;;11.20;8.00;;;;;;;9.79;84.41;98079.09;5039346;28;20044;-71
2022/09/16 00:14:55;;;;;;;14.52;9.10;;;;;;;9.73;84.41;98069.00;5057324;28;20097;-71
2022/09/16 00:17:21;;;;;;;15.98;10.55;;;;;;;9.71;84.81;98078.94;5057289;28;20051;-69
2022/09/16 00:19:45;;;;;;;13.85;9.52;;;;;;;9.68;85.33;98075.75;5056370;28;20490;-74
2022/09/16 00:22:10;;;;;;;17.65;9.73;;;;;;;9.66;85.32;98075.03;5056618;28;20504;-77
2022/09/16 00:24:36;;;;;;;13.02;8.70;;;;;;;9.62;85.06;98079.78;5037878;28;20046;-76
2022/09/16 00:27:00;;;;;;;14.02;9.20;;;;;;;9.66;85.29;98080.34;5055782;28;20170;-78
2022/09/16 00:29:25;;;;;;;14.75;8.73;;;;;;;9.70;85.61;98087.94;5020821;28;20430;-76
2022/09/16 00:31:50;;;;;;;17.95;9.10;;;;;;;9.79;85.58;98100.38;5042824;28;20040;-77
2022/09/16 00:34:15;;;;;;;15.63;10.38;;;;;;;9.87;85.69;98088.16;5028191;28;20039;-77
2022/09/16 00:36:39;;;;;;;13.65;8.85;;;;;;;9.95;85.08;98085.63;5036670;28;20074;-75
2022/09/16 00:39:04;;;;;;;13.02;9.75;;;;;;;9.97;84.95;98095.16;5037864;28;20036;-74
2022/09/16 00:41:35;;;;;;;14.60;9.95;;;;;;;10.09;84.51;98087.84;5056432;28;20050;-77
2022/09/16 00:44:03;;;;;;;14.23;9.95;;;;;;;10.10;84.08;98084.19;5034809;28;20798;-67
2022/09/16 00:46:32;;;;;;;13.23;8.77;;;;;;;10.11;83.86;98083.22;5053431;28;20457;-69
2022/09/16 00:49:00;;;;;;;16.15;9.77;;;;;;;10.03;83.54;98080.44;5020602;28;20040;-67
2022/09/16 00:51:25;;;;;;;16.45;10.02;;;;;;;9.90;83.39;98086.06;5052434;28;20040;-67
2022/09/16 00:54:00;;;;;;;14.45;9.63;;;;;;;9.92;84.38;98083.28;5037234;28;20047;-65
2022/09/16 00:56:29;;;;;;;15.02;9.02;;;;;;;9.94;83.81;98073.28;5031598;28;20423;-69
2022/09/16 00:59:17;;;;;;;16.50;9.05;;;;;;;10.01;84.08;98066.41;5055347;28;20039;-67
2022/09/16 01:01:43;;;;;;;15.38;9.13;;;;;;;9.99;83.45;98066.56;5055160;28;20035;-68
2022/09/16 01:04:15;;;;;;;15.57;9.43;;;;;;;10.02;83.18;98063.63;5055327;28;20032;-70
2022/09/16 01:06:40;;;;;;;11.63;8.75;;;;;;;9.92;83.55;98064.63;5018603;28;20059;-67
2022/09/16 01:09:05;;;;;;;12.73;8.60;;;;;;;9.79;83.76;98048.97;5050258;28;20039;-68
2022/09/16 01:11:29;;;;;;;12.75;8.32;;;;;;;9.73;84.29;98062.84;5056546;28;20080;-70
2022/09/16 01:14:51;;;;;;;15.02;9.02;;;;;;;9.67;84.90;98058.94;5020342;28;20071;-68
2022/09/16 01:16:45;;;;;;;11.65;8.63;;;;;;;9.66;85.04;98065.22;5055445;28;20059;-67
2022/09/16 01:19:36;;;;;;;14.05;10.02;;;;;;;9.63;85.84;98057.53;5051989;28;20201;-73
2022/09/16 01:22:48;;;;;;;11.95;8.60;;;;;;;9.65;85.92;98060.88;5054694;28;20510;-71
2022/09/16 01:25:38;;;;;;;14.18;8.05;;;;;;;9.67;86.11;98050.13;5050865;28;20066;-72
2022/09/16 01:28:39;;;;;;;12.32;9.07;;;;;;;9.69;86.19;98056.97;5034958;28;20040;-71
2022/09/16 01:31:11;;;;;;;16.42;9.40;;;;;;;9.75;86.04;98052.88;5052763;28;20423;-71
2022/09/16 01:33:57;;;;;;;12.45;8.75;;;;;;;9.84;86.44;98060.00;5055207;28;20036;-71
2022/09/16 01:36:28;;;;;;;13.68;9.95;;;;;;;9.89;86.28;98064.91;5051393;28;20087;-71
2022/09/16 01:39:07;;;;;;;13.90;8.93;;;;;;;9.92;86.19;98067.28;5056128;28;20032;-70
2022/09/16 01:41:45;;;;;;;17.67;8.93;;;;;;;10.01;86.07;98059.28;5051804;28;20051;-71
2022/09/16 01:44:18;;;;;;;14.60;9.63;;;;;;;10.09;85.51;98056.72;5054908;28;20097;-71
2022/09/16 01:46:55;;;;;;;13.02;8.82;;;;;;;10.16;85.50;98056.97;5056348;28;20070;-72
2022/09/16 01:49:34;;;;;;;14.25;8.43;;;;;;;10.21;85.53;98052.09;5055780;28;20032;-72
2022/09/16 01:52:16;;;;;;;12.15;8.48;;;;;;;10.30;85.69;98053.88;5054291;28;20038;-71
2022/09/16 01:54:48;;;;;;;11.20;8.30;;;;;;;10.28;85.77;98041.66;5054393;28;20095;-70
2022/09/16 01:57:22;;;;;;;13.00;8.77;;;;;;;10.33;85.02;98040.25;5054168;28;20081;-69
2022/09/16 02:00:00;;;;;;;15.18;9.75;;;;;;;10.38;85.43;98048.66;5054495;28;20490;-72
2022/09/16 02:02:40;;;;;;;15.00;9.40;;;;;;;10.41;85.21;98043.03;5016866;28;20070;-66
2022/09/16 02:05:13;;;;;;;12.15;9.43;;;;;;;10.48;85.20;98044.13;5017028;28;20056;-68
2022/09/16 02:07:44;;;;;;;15.23;9.35;;;;;;;10.50;84.87;98041.28;5016169;28;20517;-68
2022/09/16 02:10:30;;;;;;;14.52;9.70;;;;;;;10.62;84.61;98044.59;5036641;28;20558;-69
2022/09/16 02:13:01;;;;;;;16.50;10.50;;;;;;;10.59;84.63;98039.59;5054953;28;20048;-67
2022/09/16 02:15:29;;;;;;;17.17;10.23;;;;;;;10.59;83.66;98048.41;5036713;28;20040;-68
2022/09/16 02:18:03;;;;;;;13.82;9.52;;;;;;;10.63;83.57;98049.78;5020164;28;20043;-67
2022/09/16 02:20:30;;;;;;;15.85;9.32;;;;;;;10.64;83.39;98042.63;5055683;28;20061;-69
2022/09/16 02:23:11;;;;;;;16.08;8.75;;;;;;;10.71;83.88;98043.72;5055607;28;20083;-65
2022/09/16 02:25:38;;;;;;;17.42;9.95;;;;;;;10.64;83.17;98037.28;5056420;28;20080;-65
2022/09/16 02:28:11;;;;;;;13.52;8.88;;;;;;;10.69;83.19;98035.03;5055415;28;20562;-67
2022/09/16 02:30:36;;;;;;;11.32;7.90;;;;;;;10.73;83.28;98041.72;5054286;28;20032;-64
2022/09/16 02:33:07;;;;;;;15.27;9.40;;;;;;;10.67;83.40;98034.34;5053488;28;20040;-63
2022/09/16 02:35:35;;;;;;;14.05;10.25;;;;;;;10.65;82.77;98031.81;5035933;28;20040;-63
2022/09/16 02:38:05;;;;;;;22.15;9.30;;;;;;;10.69;83.22;98032.38;5033195;28;20047;-64
2022/09/16 02:40:36;;;;;;;12.60;9.23;;;;;;;10.70;83.13;98036.72;5053532;28;20032;-67
2022/09/16 02:43:01;;;;;;;15.23;9.68;;;;;;;10.69;82.88;98032.38;5033766;28;20041;-64
2022/09/16 02:45:42;;;;;;;13.35;9.35;;;;;;;10.75;83.94;98023.75;5052955;28;20032;-64
2022/09/16 02:48:39;;;;;;;11.52;8.68;;;;;;;10.80;83.45;98027.66;5051246;28;20051;-66
2022/09/16 02:51:30;;;;;;;13.77;8.65;;;;;;;10.82;83.53;98030.19;5052982;28;20525;-66
2022/09/16 02:54:19;;;;;;;11.93;7.97;;;;;;;10.87;82.83;98025.22;5010904;28;20060;-65
2022/09/16 02:56:44;;;;;;;14.85;8.63;;;;;;;10.89;82.72;98024.09;4984893;28;20053;-67
2022/09/16 02:59:11;;;;;;;14.50;8.82;;;;;;;10.92;82.73;98025.63;4985363;28;20147;-64
2022/09/16 03:01:40;;;;;;;11.88;8.65;;;;;;;10.89;82.54;98020.59;5009300;28;20522;-65
2022/09/16 03:04:05;;;;;;;12.55;7.65;;;;;;;10.92;82.61;98014.97;5014324;28;20048;-65
2022/09/16 03:06:34;;;;;;;14.43;8.23;;;;;;;10.96;81.98;98020.81;4980523;28;20095;-63
2022/09/16 03:09:00;;;;;;;12.07;8.77;;;;;;;10.98;82.16;98016.16;4996678;28;20055;-64
2022/09/16 03:11:30;;;;;;;10.75;8.18;;;;;;;10.92;82.56;98014.97;5012464;28;20079;-65
2022/09/16 03:14:13;;;;;;;12.90;8.93;;;;;;;10.96;82.21;98007.47;5012326;28;20055;-64
2022/09/16 03:17:05;;;;;;;10.95;7.40;;;;;;;11.12;82.18;98005.81;4995756;28;20091;-63
2022/09/16 03:19:50;;;;;;;12.15;8.38;;;;;;;11.13;81.36;98007.50;4995582;28;20127;-67
2022/09/16 03:22:36;;;;;;;15.75;9.18;;;;;;;11.16;80.67;98004.53;4995345;28;20041;-67
2022/09/16 03:25:01;;;;;;;13.93;8.85;;;;;;;11.05;81.09;98011.91;4995590;28;20044;-66
2022/09/16 03:27:38;;;;;;;12.95;8.85;;;;;;;11.10;81.93;98020.28;5014213;28;20199;-64
2022/09/16 03:30:06;;;;;;;14.02;8.30;;;;;;;11.14;81.86;98011.00;5000982;28;20166;-64
2022/09/16 03:32:43;;;;;;;11.13;8.48;;;;;;;11.24;81.51;98014.41;5037293;28;20093;-65
2022/09/16 03:35:21;;;;;;;12.07;8.38;;;;;;;11.31;80.89;98017.28;5038244;28;20407;-65
2022/09/16 03:37:47;;;;;;;12.13;7.95;;;;;;;11.27;80.38;98019.47;5020072;28;20036;-64
2022/09/16 03:40:15;;;;;;;12.88;8.38;;;;;;;11.31;80.19;98014.63;5037857;28;20071;-65
2022/09/16 03:42:41;;;;;;;11.88;7.75;;;;;;;11.34;80.77;98022.34;5048449;28;20051;-67
2022/09/16 03:45:08;;;;;;;12.38;8.50;;;;;;;11.28;81.08;98027.31;5041357;28;20036;-65
2022/09/16 03:47:33;;;;;;;13.13;7.00;;;;;;;11.35;80.63;98021.34;5039883;28;20036;-66
2022/09/16 03:49:58;;;;;;;9.90;7.13;;;;;;;11.33;81.10;98026.00;5061327;28;20035;-66
2022/09/16 03:52:22;;;;;;;10.77;7.68;;;;;;;11.35;80.59;98026.69;5060952;28;20048;-65
2022/09/16 03:54:47;;;;;;;10.40;7.53;;;;;;;11.37;80.64;98027.38;5061220;28;20043;-66
2022/09/16 03:57:12;;;;;;;8.15;6.65;;;;;;;11.43;80.78;98032.91;5060200;28;20406;-66
2022/09/16 03:59:37;;;;;;;11.55;8.02;;;;;;;11.44;80.52;98026.59;5061288;28;20411;-65
2022/09/16 04:02:01;;;;;;;10.27;7.68;;;;;;;11.44;79.94;98028.41;5062288;28;20039;-66
2022/09/16 04:04:26;;;;;;;11.80;8.13;;;;;;;11.47;79.96;98034.31;5046010;28;20172;-68
2022/09/16 04:06:50;;;;;;;16.15;8.95;;;;;;;11.45;79.74;98027.44;5062613;28;20414;-65
2022/09/16 04:09:15;;;;;;;13.35;8.52;;;;;;;11.41;80.33;98029.56;5040683;28;20043;-63
2022/09/16 04:11:40;;;;;;;14.30;8.48;;;;;;;11.42;80.13;98028.56;5058116;28;20048;-65
2022/09/16 04:14:05;;;;;;;13.07;8.13;;;;;;;11.45;80.02;98035.44;5057328;28;20052;-64
2022/09/16 04:16:30;;;;;;;11.05;7.95;;;;;;;11.43;79.92;98037.41;5058077;28;20036;-64
2022/09/16 04:18:55;;;;;;;11.93;8.10;;;;;;;11.57;79.80;98035.03;5057839;28;20082;-65
2022/09/16 04:21:20;;;;;;;11.77;8.48;;;;;;;11.53;80.14;98032.81;5057501;28;20047;-64
2022/09/16 04:23:45;;;;;;;13.82;9.55;;;;;;;11.51;79.98;98035.66;5056797;28;20047;-65
2022/09/16 04:26:10;;;;;;;12.77;8.20;;;;;;;11.50;80.65;98038.50;5056917;28;20044;-65
2022/09/16 04:28:35;;;;;;;12.40;9.02;;;;;;;11.50;79.78;98030.50;5038648;28;20058;-65
2022/09/16 04:31:20;;;;;;;15.02;8.90;;;;;;;11.57;80.21;98026.19;5038508;28;20036;-64
2022/09/16 04:33:44;;;;;;;14.27;8.20;;;;;;;11.53;80.32;98030.16;5056393;28;20164;-65
2022/09/16 04:36:12;;;;;;;12.35;8.32;;;;;;;11.61;80.53;98030.25;5056512;28;20063;-64
2022/09/16 04:38:38;;;;;;;7.75;5.68;;;;;;;11.72;79.57;98029.16;5039031;28;20044;-64
2022/09/16 04:41:05;;;;;;;11.80;8.73;;;;;;;11.69;80.01;98014.28;5056395;28;20039;-64
2022/09/16 04:43:30;;;;;;;11.70;7.47;;;;;;;11.68;79.63;98007.25;5056812;28;20169;-64
2022/09/16 04:45:55;;;;;;;11.40;7.93;;;;;;;11.72;79.81;98011.31;5037857;28;20048;-64
2022/09/16 04:48:19;;;;;;;13.93;7.47;;;;;;;11.76;79.43;98009.16;5056391;28;20102;-65
2022/09/16 04:50:44;;;;;;;18.45;9.77;;;;;;;11.68;79.33;98009.09;5056622;28;20036;-67
2022/09/16 04:53:09;;;;;;;11.88;8.48;;;;;;;11.60;79.90;98015.22;5056154;28;20052;-64
2022/09/16 04:55:34;;;;;;;16.00;9.63;;;;;;;11.57;80.48;98012.84;5056638;28;20071;-66
2022/09/16 04:57:59;;;;;;;16.48;9.93;;;;;;;11.57;81.13;98010.19;5037993;28;20054;-66
2022/09/16 05:00:24;;;;;;;14.75;8.80;;;;;;;11.53;80.83;98009.66;5038031;28;20044;-65
2022/09/16 05:02:49;;;;;;;13.02;9.90;;;;;;;11.55;81.17;98013.00;5038189;28;20044;-65
2022/09/16 05:05:16;;;;;;;14.85;8.82;;;;;;;11.63;80.77;98012.22;5055632;28;20093;-65
2022/09/16 05:07:40;;;;;;;14.27;8.20;;;;;;;11.78;80.42;98005.34;5056206;28;20040;-63
2022/09/16 05:10:05;;;;;;;15.63;9.25;;;;;;;11.84;80.02;98003.91;5055666;28;20044;-64
2022/09/16 05:12:30;;;;;;;15.70;9.93;;;;;;;11.76;79.86;98003.81;5056515;28;20127;-63
2022/09/16 05:14:55;;;;;;;14.68;9.32;;;;;;;11.82;79.95;98004.06;5041159;28;20139;-64
2022/09/16 05:17:20;;;;;;;14.77;9.77;;;;;;;11.76;80.27;97999.31;5039715;28;20043;-64
2022/09/16 05:19:44;;;;;;;11.13;8.30;;;;;;;11.76;80.44;97999.31;5056379;28;20040;-64
2022/09/16 05:22:09;;;;;;;19.08;10.27;;;;;;;11.84;79.64;98002.06;5056077;28;20058;-64
2022/09/16 05:24:35;;;;;;;19.35;9.43;;;;;;;11.76;79.66;97995.81;5021503;28;20035;-65
2022/09/16 05:27:00;;;;;;;12.65;9.15;;;;;;;11.77;80.61;97989.50;5056225;28;20052;-65
2022/09/16 05:29:24;;;;;;;13.00;9.32;;;;;;;11.75;80.14;97992.31;5055384;28;20077;-64
2022/09/16 05:31:49;;;;;;;15.90;9.45;;;;;;;11.80;79.65;97984.69;5056233;28;20052;-64
2022/09/16 05:34:20;;;;;;;16.17;9.38;;;;;;;11.84;79.99;97996.72;5055782;28;20039;-64
2022/09/16 05:36:46;;;;;;;15.50;9.00;;;;;;;11.84;80.49;97987.88;5055536;28;20481;-63
2022/09/16 05:39:11;;;;;;;12.60;8.95;;;;;;;11.91;80.31;97984.41;5055031;28;20042;-65
2022/09/16 05:41:36;;;;;;;11.90;8.32;;;;;;;12.03;79.88;97974.28;5037146;28;20048;-65
2022/09/16 05:44:01;;;;;;;13.40;9.93;;;;;;;12.09;79.57;97970.97;5055736;28;20040;-65
2022/09/16 05:46:26;;;;;;;18.90;10.77;;;;;;;12.22;79.36;97973.19;5048174;28;20048;-64
2022/09/16 05:48:51;;;;;;;13.93;9.18;;;;;;;12.28;79.38;97972.56;5062582;28;20040;-64
2022/09/16 05:51:18;;;;;;;18.27;10.27;;;;;;;12.43;78.77;97975.44;5058729;28;20116;-64
2022/09/16 05:53:44;;;;;;;14.38;8.55;;;;;;;12.47;78.88;97983.00;5058698;28;20081;-66
2022/09/16 05:56:20;;;;;;;13.38;9.35;;;;;;;12.52;78.57;97979.84;5060973;28;20048;-65
2022/09/16 05:58:45;;;;;;;15.27;8.65;;;;;;;12.62;77.92;97980.53;5064604;28;20109;-68
2022/09/16 06:01:16;;;;;;;14.57;8.77;;;;;;;12.70;77.67;97984.06;5060584;28;20182;-65
2022/09/16 06:03:43;;;;;;;13.55;9.43;;;;;;;12.73;77.58;97977.56;5055321;28;20043;-66
2022/09/16 06:06:33;;;;;;;16.85;9.77;;;;;;;12.90;77.17;97981.09;5036799;28;20071;-64
2022/09/16 06:09:09;;;;;;;15.60;10.35;;;;;;;12.73;77.53;97972.22;5056698;28;20043;-64
2022/09/16 06:11:37;;;;;;;16.90;10.38;;;;;;;12.76;77.43;97973.69;5055024;28;20048;-65
2022/09/16 06:14:02;;;;;;;15.93;10.27;;;;;;;12.62;77.54;97970.69;5054811;28;20042;-65
2022/09/16 06:16:31;;;;;;;14.43;10.52;;;;;;;12.67;77.63;97973.69;5036431;28;20138;-64
2022/09/16 06:18:56;;;;;;;16.17;10.35;;;;;;;12.66;77.65;97973.84;5038017;28;20436;-66
2022/09/16 06:21:22;;;;;;;16.63;10.75;;;;;;;12.63;78.04;97963.50;5055452;28;20407;-64
2022/09/16 06:23:46;;;;;;;16.17;10.65;;;;;;;12.76;78.14;97971.03;5036321;28;20373;-65
2022/09/16 06:26:16;;;;;;;18.00;10.15;;;;;;;12.85;77.93;97975.41;5055419;28;20150;-64
2022/09/16 06:28:42;;;;;;;18.83;9.55;;;;;;;12.97;77.26;97966.06;5020272;28;20040;-64
2022/09/16 06:31:18;;;;;;;18.77;10.50;;;;;;;13.02;77.33;97959.22;5020950;28;20044;-63
2022/09/16 06:33:43;;;;;;;17.65;11.95;;;;;;;13.24;76.53;97955.06;5036780;28;20677;-64
2022/09/16 06:36:17;;;;;;;17.35;11.25;;;;;;;13.51;76.49;97953.06;5055802;28;20409;-65
2022/09/16 06:38:42;;;;;;;35.63;10.80;;;;;;;14.13;75.27;97946.03;5054973;28;20056;-65
2022/09/16 06:41:09;;;;;;;16.83;11.02;;;;;;;14.65;72.48;97945.50;5036522;28;20139;-65
2022/09/16 06:43:35;;;;;;;20.20;10.88;;;;;;;15.18;70.80;97945.44;5036830;28;20040;-64
2022/09/16 06:46:03;;;;;;;20.48;12.15;;;;;;;15.41;69.83;97941.91;5055637;28;20131;-63
2022/09/16 06:48:30;;;;;;;12.55;9.25;;;;;;;15.61;68.46;97943.91;5037164;28;20112;-63
2022/09/16 06:51:08;;;;;;;19.65;12.25;;;;;;;15.79;68.91;97943.59;5055715;28;20115;-65
2022/09/16 06:53:34;;;;;;;16.10;10.57;;;;;;;15.66;68.36;97935.31;5036709;28;20689;-65
2022/09/16 06:56:09;;;;;;;16.58;11.23;;;;;;;15.74;68.46;97937.91;5054280;28;20534;-64
2022/09/16 06:58:35;;;;;;;17.73;10.60;;;;;;;15.65;67.93;97938.19;5054562;28;20518;-63
2022/09/16 07:01:11;;;;;;;18.85;9.70;;;;;;;15.74;68.85;97940.59;5055759;28;20048;-64
2022/09/16 07:03:44;;;;;;;16.67;10.98;;;;;;;15.76;67.54;97935.03;5057883;28;20048;-64
2022/09/16 07:06:11;;;;;;;16.25;10.30;;;;;;;15.79;67.79;97937.38;5058245;28;20426;-71
2022/09/16 07:08:36;;;;;;;17.13;11.20;;;;;;;16.06;67.42;97939.41;5058486;28;20071;-69
2022/09/16 07:11:07;;;;;;;20.08;11.07;;;;;;;16.47;66.57;97931.69;5057741;28;20047;-70
2022/09/16 07:13:32;;;;;;;17.23;11.02;;;;;;;16.84;66.00;97941.44;5040012;28;20497;-70
2022/09/16 07:16:05;;;;;;;17.40;11.30;;;;;;;17.22;64.75;97938.50;5058223;28;20047;-70
2022/09/16 07:18:30;;;;;;;21.58;11.00;;;;;;;17.81;62.79;97943.59;5058261;28;20438;-70
2022/09/16 07:21:02;;;;;;;15.40;10.52;;;;;;;18.19;61.60;97931.38;5057999;28;20340;-70
2022/09/16 07:23:30;;;;;;;17.15;10.68;;;;;;;18.30;60.46;97938.88;5039560;28;20085;-70
2022/09/16 07:26:03;;;;;;;13.95;10.05;;;;;;;18.22;60.73;97928.28;5058110;28;20040;-70
2022/09/16 07:28:28;;;;;;;13.95;10.23;;;;;;;17.84;60.37;97924.31;5039181;28;20043;-71
2022/09/16 07:30:53;;;;;;;16.67;10.98;;;;;;;17.61;61.61;97919.97;5058341;28;20126;-70
2022/09/16 07:33:18;;;;;;;18.25;11.88;;;;;;;17.38;62.63;97916.72;5039943;28;20043;-70
2022/09/16 07:35:42;;;;;;;18.77;10.88;;;;;;;17.04;63.19;97914.75;5039307;28;20048;-71
2022/09/16 07:38:07;;;;;;;17.52;11.23;;;;;;;17.01;63.61;97915.94;5057829;28;20050;-71
2022/09/16 07:40:33;;;;;;;16.98;10.60;;;;;;;16.82;64.11;97907.66;5057501;28;20392;-70
2022/09/16 07:42:57;;;;;;;16.88;10.95;;;;;;;16.76;65.42;97903.88;5057662;28;20048;-69
2022/09/16 07:45:22;;;;;;;18.35;12.48;;;;;;;16.95;64.08;97905.09;5039315;28;20105;-70
2022/09/16 07:47:49;;;;;;;21.83;11.80;;;;;;;17.22;63.37;97900.81;5039585;28;20083;-69
2022/09/16 07:50:13;;;;;;;19.10;11.63;;;;;;;17.35;63.27;97899.06;5057187;28;20547;-70
2022/09/16 07:52:38;;;;;;;19.17;11.00;;;;;;;17.28;63.11;97894.63;5057491;28;20449;-69
2022/09/16 07:55:03;;;;;;;14.10;9.50;;;;;;;17.24;62.89;97904.16;5057708;28;20052;-70
2022/09/16 07:57:28;;;;;;;16.77;11.00;;;;;;;16.98;63.68;97892.09;5041831;28;20402;-63
2022/09/16 07:59:53;;;;;;;17.92;9.93;;;;;;;16.88;63.83;97896.13;5057930;28;20459;-64
2022/09/16 08:02:18;;;;;;;17.13;11.15;;;;;;;16.81;64.51;97893.41;5057625;28;20130;-64
2022/09/16 08:04:42;;;;;;;14.20;10.02;;;;;;;16.85;64.68;97886.59;5058752;28;20162;-65
2022/09/16 08:07:07;;;;;;;14.25;10.65;;;;;;;17.09;64.16;97884.53;5058683;28;20056;-63
2022/09/16 08:09:32;;;;;;;16.42;10.65;;;;;;;17.46;63.41;97881.53;5057868;28;20039;-63
2022/09/16 08:11:57;;;;;;;13.25;9.70;;;;;;;17.78;62.74;97882.81;5041585;28;20044;-63
2022/09/16 08:14:22;;;;;;;15.00;10.45;;;;;;;17.95;61.81;97870.66;5045746;28;20044;-64
2022/09/16 08:16:50;;;;;;;10.88;8.63;;;;;;;18.14;60.70;97871.81;5068083;28;20036;-63
2022/09/16 08:19:15;;;;;;;16.90;10.00;;;;;;;18.18;60.59;97875.75;5071240;28;20048;-64
2022/09/16 08:21:39;;;;;;;13.90;10.45;;;;;;;18.07;60.81;97865.53;5049004;28;20096;-65
2022/09/16 08:24:04;;;;;;;12.15;9.20;;;;;;;18.22;60.71;97865.41;5065606;28;20153;-66
2022/09/16 10:29:40;;;;;;;11.82;7.55;;;;;;;17.88;58.86;97791.63;5112018;27;20598;-72
2022/09/16 10:32:11;;;;;;;13.65;7.97;;;;;;;17.82;59.68;97797.00;5099494;27;20521;-71
2022/09/16 10:34:39;;;;;;;14.85;7.45;;;;;;;17.86;59.29;97792.84;5102328;27;20043;-71
2022/09/16 10:37:16;;;;;;;11.77;8.00;;;;;;;17.84;59.11;97792.22;5101335;27;20122;-71
2022/09/16 10:39:50;;;;;;;12.25;7.65;;;;;;;17.80;59.00;97790.97;5100137;27;20043;-72
2022/09/16 10:42:22;;;;;;;11.00;7.15;;;;;;;17.61;59.33;97792.47;5099721;27;20047;-72
2022/09/16 10:44:50;;;;;;;13.30;7.57;;;;;;;17.58;59.38;97788.34;5081181;27;20043;-71
2022/09/16 10:47:19;;;;;;;12.07;8.13;;;;;;;17.31;60.56;97790.03;5077815;27;20133;-71
2022/09/16 10:50:05;;;;;;;9.48;6.05;;;;;;;17.41;60.21;97781.59;5102700;27;20043;-72
2022/09/16 10:52:39;;;;;;;12.10;7.15;;;;;;;17.21;60.18;97775.25;5099323;27;20157;-71
2022/09/16 10:55:23;;;;;;;11.35;8.27;;;;;;;17.05;61.27;97782.59;5102313;27;20122;-74
2022/09/16 10:57:47;;;;;;;12.35;8.18;;;;;;;16.85;62.16;97773.53;5085819;27;20043;-71
2022/09/16 11:00:15;;;;;;;11.57;8.07;;;;;;;16.81;62.38;97774.97;5085294;27;20055;-65
2022/09/16 11:03:17;;;;;;;11.60;7.50;;;;;;;17.01;61.93;97775.97;5078481;28;20490;-65
2022/09/16 11:05:58;;;;;;;12.85;8.27;;;;;;;16.82;62.18;97775.78;5060110;28;20144;-65
2022/09/16 11:08:25;;;;;;;15.40;7.28;;;;;;;16.70;62.29;97770.13;5043163;28;20040;-63
2022/09/16 11:11:02;;;;;;;14.15;8.18;;;;;;;16.71;62.63;97766.38;5077880;28;20051;-65
2022/09/16 11:13:35;;;;;;;15.45;7.95;;;;;;;16.65;63.10;97765.31;5061145;28;20036;-64
2022/09/16 11:16:24;;;;;;;13.20;7.95;;;;;;;16.68;62.55;97764.94;5061947;28;20043;-64
2022/09/16 11:18:55;;;;;;;14.32;7.60;;;;;;;16.62;63.02;97756.78;5077280;28;20134;-65
2022/09/16 11:21:39;;;;;;;12.43;7.68;;;;;;;16.60;63.26;97756.09;5060339;28;20051;-64
2022/09/16 11:24:22;;;;;;;9.93;7.80;;;;;;;16.61;63.40;97758.59;5078931;28;20402;-65
2022/09/16 11:27:05;;;;;;;12.98;7.70;;;;;;;16.72;63.14;97749.22;5077825;28;20409;-63
2022/09/16 11:30:02;;;;;;;12.48;6.88;;;;;;;16.78;62.56;97745.75;5092397;27;20047;-62
2022/09/16 11:32:43;;;;;;;8.75;7.03;;;;;;;16.64;62.55;97733.22;5079704;27;20042;-64
2022/09/16 11:35:16;;;;;;;12.27;7.80;;;;;;;16.67;62.60;97746.28;5079565;27;20065;-65
2022/09/16 11:37:53;;;;;;;11.45;7.72;;;;;;;16.70;62.63;97735.16;5079951;27;20438;-65
2022/09/16 11:40:33;;;;;;;12.13;7.38;;;;;;;16.66;62.46;97734.69;5083536;27;20046;-64
2022/09/16 11:43:34;;;;;;;8.88;5.80;;;;;;;16.74;62.34;97730.19;5079732;27;20078;-64
2022/09/16 11:46:22;;;;;;;13.32;6.70;;;;;;;16.59;62.48;97723.00;5097309;27;20058;-64
2022/09/16 11:49:09;;;;;;;14.02;6.70;;;;;;;16.70;62.33;97724.38;5098113;27;20051;-65
2022/09/16 11:51:57;;;;;;;8.63;6.40;;;;;;;16.62;62.58;97716.44;5098912;27;20042;-66
2022/09/16 11:54:50;;;;;;;5.80;4.35;;;;;;;16.75;62.66;97724.59;5097359;27;20588;-66
2022/09/16 11:57:22;;;;;;;12.55;6.75;;;;;;;16.50;64.10;97707.19;5097534;27;20045;-66
2022/09/16 11:59:54;;;;;;;12.75;7.53;;;;;;;16.22;65.48;97716.06;5079767;27;20559;-73
2022/09/16 12:02:19;;;;;;;10.50;7.15;;;;;;;16.09;65.32;97713.25;5097405;27;20045;-63
2022/09/16 12:04:50;;;;;;;10.18;6.68;;;;;;;15.87;66.63;97708.88;5079226;27;20051;-64
2022/09/16 12:07:41;;;;;;;16.17;7.63;;;;;;;16.02;65.90;97715.03;5078672;27;20429;-68
2022/09/16 12:10:16;;;;;;;12.18;7.78;;;;;;;15.79;66.98;97704.44;5079045;27;20776;-67
2022/09/16 12:12:47;;;;;;;9.82;7.15;;;;;;;15.66;68.41;97706.97;5079075;27;20051;-67
2022/09/16 12:15:19;;;;;;;11.55;7.97;;;;;;;15.73;67.42;97704.34;5079499;27;20038;-68
2022/09/16 12:17:52;;;;;;;14.57;7.85;;;;;;;15.65;68.11;97709.84;5097295;27;20122;-64
2022/09/16 12:20:26;;;;;;;13.70;7.97;;;;;;;15.55;68.88;97702.09;5097220;27;20051;-67
2022/09/16 12:22:59;;;;;;;12.25;7.07;;;;;;;15.49;68.54;97694.75;5097551;27;20129;-68
2022/09/16 12:25:37;;;;;;;11.48;7.93;;;;;;;15.48;68.81;97695.75;5097425;27;20043;-66
2022/09/16 12:28:10;;;;;;;11.52;7.10;;;;;;;15.34;69.38;97694.78;5097062;27;20062;-64
2022/09/16 12:30:39;;;;;;;16.38;8.63;;;;;;;15.08;71.05;97699.78;5079930;27;20071;-66
2022/09/16 12:33:39;;;;;;;12.68;8.50;;;;;;;15.08;71.12;97691.75;5022449;28;20040;-65
2022/09/16 12:36:27;;;;;;;16.92;9.82;;;;;;;14.86;72.68;97696.19;4982200;28;20053;-65
2022/09/16 12:38:52;;;;;;;12.98;8.45;;;;;;;14.48;73.20;97676.59;4976578;28;20042;-65
2022/09/16 12:41:34;;;;;;;15.68;8.82;;;;;;;14.37;74.59;97688.56;4975965;28;20049;-65
2022/09/16 12:44:11;;;;;;;16.30;9.43;;;;;;;14.17;75.37;97680.19;5011035;28;20048;-65
2022/09/16 12:46:47;;;;;;;12.57;8.95;;;;;;;13.97;76.18;97683.53;5014345;28;20581;-66
2022/09/16 12:49:33;;;;;;;13.90;9.90;;;;;;;13.84;77.03;97694.00;4998826;28;20080;-68
2022/09/16 12:52:14;;;;;;;14.60;8.35;;;;;;;13.70;77.16;97690.25;5018127;28;20064;-67
2022/09/16 12:55:12;;;;;;;17.27;10.07;;;;;;;13.89;77.37;97688.94;4998775;28;20040;-65
2022/09/16 12:58:15;;;;;;;17.45;9.45;;;;;;;13.73;77.99;97688.06;4998505;28;20053;-66
2022/09/16 13:01:18;;;;;;;12.68;9.18;;;;;;;13.76;78.40;97697.59;5000017;28;20033;-65
2022/09/16 13:03:54;;;;;;;15.75;9.95;;;;;;;13.72;79.19;97696.25;4916256;29;20055;-67
2022/09/16 13:06:27;;;;;;;18.23;10.52;;;;;;;13.75;79.05;97696.75;4901701;29;20055;-65
2022/09/16 13:08:54;;;;;;;20.13;9.77;;;;;;;13.75;79.65;97698.59;4900227;29;20150;-66
2022/09/16 13:11:28;;;;;;;15.10;9.98;;;;;;;13.80;80.12;97701.56;4944863;28;20064;-64
2022/09/16 13:13:56;;;;;;;15.63;8.68;;;;;;;13.77;80.34;97705.41;4993462;28;20050;-64
2022/09/16 13:16:54;;;;;;;16.92;9.27;;;;;;;13.85;80.49;97701.88;4993516;28;20050;-66
2022/09/16 13:19:37;;;;;;;16.20;9.70;;;;;;;13.84;80.97;97696.69;4993711;28;20131;-65
2022/09/16 13:22:10;;;;;;;15.00;10.65;;;;;;;13.85;81.44;97709.91;4992609;28;20555;-65
2022/09/16 13:24:43;;;;;;;16.58;10.57;;;;;;;13.86;81.81;97713.41;4993370;28;20064;-66
2022/09/16 13:27:28;;;;;;;17.70;11.45;;;;;;;13.89;81.83;97707.69;4992746;28;20053;-65
2022/09/16 13:30:04;;;;;;;;;;;;;;;13.93;81.03;97715.19;4986495;28;20507;-69
2022/09/16 13:32:55;;;;;;;14.93;9.27;;;;;;;13.85;80.49;97709.91;4997334;28;19916;-65
2022/09/16 13:35:31;;;;;;;16.98;9.90;;;;;;;13.75;80.43;97711.97;4996482;28;20060;-67
2022/09/16 13:37:57;;;;;;;16.23;10.65;;;;;;;13.61;80.77;97708.22;5013633;28;20048;-66
2022/09/16 13:40:26;;;;;;;22.00;10.95;;;;;;;13.54;81.60;97701.06;5022053;28;20055;-64
2022/09/16 13:43:11;;;;;;;17.92;11.48;;;;;;;13.58;81.81;97710.38;5060777;27;20053;-66
2022/09/16 13:45:38;;;;;;;19.02;12.63;;;;;;;13.48;82.18;97702.59;5095783;28;20043;-65
2022/09/16 13:48:21;;;;;;;21.33;12.20;;;;;;;13.53;83.67;97696.72;5059984;28;20043;-64